createdAt,value
2023-01-09T00:00:24.138Z,99.25
2023-01-09T00:01:24.091Z,99.25
2023-01-09T00:02:24.105Z,99.25
2023-01-09T00:03:24.084Z,99.56
2023-01-09T00:04:24.016Z,99.98
2023-01-09T00:05:23.995Z,99.98
2023-01-09T00:06:23.985Z,99.77
2023-01-09T00:07:23.978Z,99.56
2023-01-09T00:08:23.954Z,99.66
2023-01-09T00:09:24.024Z,99.98
2023-01-09T00:10:23.926Z,99.87
2023-01-09T00:11:23.928Z,99.56
2023-01-09T00:12:23.915Z,99.56
2023-01-09T00:13:23.894Z,99.71
2023-01-09T00:14:23.900Z,99.99
2023-01-09T00:15:23.874Z,99.99
2023-01-09T00:16:23.891Z,99.99
2023-01-09T00:17:23.855Z,99.99
2023-01-09T00:18:23.823Z,99.99
2023-01-09T00:19:23.834Z,99.99
2023-01-09T00:20:23.804Z,99.99
2023-01-09T00:21:23.782Z,99.99
2023-01-09T00:22:23.782Z,99.99
2023-01-09T00:23:23.761Z,99.99
2023-01-09T00:24:23.765Z,99.99
2023-01-09T00:25:23.742Z,99.99
2023-01-09T00:26:23.712Z,99.99
2023-01-09T00:27:23.713Z,99.99
2023-01-09T00:28:23.692Z,99.99
2023-01-09T00:29:23.705Z,99.99
2023-01-09T00:30:23.693Z,99.99
2023-01-09T00:31:23.670Z,99.99
2023-01-09T00:32:23.701Z,99.99
2023-01-09T00:33:23.642Z,99.99
2023-01-09T00:34:23.634Z,99.99
2023-01-09T00:35:23.625Z,99.99
2023-01-09T00:36:23.609Z,99.99
2023-01-09T00:37:23.588Z,99.99
2023-01-09T00:38:23.571Z,99.99
2023-01-09T00:39:23.578Z,99.99
2023-01-09T00:40:23.549Z,99.99
2023-01-09T00:41:23.532Z,99.99
2023-01-09T00:42:23.528Z,99.99
2023-01-09T00:43:23.542Z,99.99
2023-01-09T00:44:23.497Z,99.99
2023-01-09T00:45:23.477Z,99.99
2023-01-09T00:46:23.505Z,99.99
2023-01-09T00:47:23.459Z,99.99
2023-01-09T00:48:23.446Z,99.99
2023-01-09T00:49:23.438Z,99.99
2023-01-09T00:50:23.429Z,99.99
2023-01-09T00:51:23.399Z,99.99
2023-01-09T00:52:23.388Z,99.99
2023-01-09T00:53:23.386Z,99.99
2023-01-09T00:54:23.388Z,99.99
2023-01-09T00:55:23.347Z,99.99
2023-01-09T00:56:23.335Z,99.99
2023-01-09T00:57:23.325Z,99.99
2023-01-09T00:58:23.307Z,99.99
2023-01-09T00:59:23.313Z,99.99
2023-01-09T01:00:23.283Z,99.99
2023-01-09T01:01:23.346Z,99.94
2023-01-09T01:02:23.540Z,99.63
2023-01-09T01:03:23.252Z,99.73
2023-01-09T01:04:23.267Z,99.84
2023-01-09T01:05:23.228Z,99.73
2023-01-09T01:06:23.207Z,99.73
2023-01-09T01:07:23.196Z,99.94
2023-01-09T01:08:23.175Z,99.84
2023-01-09T01:09:23.183Z,99.73
2023-01-09T01:10:23.151Z,99.73
2023-01-09T01:11:23.148Z,99.69
2023-01-09T01:12:23.121Z,99.48
2023-01-09T01:13:23.132Z,99.38
2023-01-09T01:14:23.106Z,99.17
2023-01-09T01:15:23.107Z,98.82
2023-01-09T01:16:23.105Z,98.61
2023-01-09T01:17:23.071Z,98.50
2023-01-09T01:18:23.056Z,98.50
2023-01-09T01:19:23.041Z,98.61
2023-01-09T01:20:23.029Z,98.20
2023-01-09T01:21:23.039Z,98.10
2023-01-09T01:22:22.998Z,97.99
2023-01-09T01:23:22.978Z,97.99
2023-01-09T01:24:22.981Z,97.99
2023-01-09T01:25:22.971Z,97.99
2023-01-09T01:26:22.953Z,97.89
2023-01-09T01:27:22.931Z,97.99
2023-01-09T01:28:22.922Z,98.20
2023-01-09T01:29:22.919Z,98.20
2023-01-09T01:30:22.907Z,98.41
2023-01-09T01:31:22.894Z,98.30
2023-01-09T01:32:22.871Z,98.41
2023-01-09T01:33:22.860Z,98.41
2023-01-09T01:34:22.854Z,98.61
2023-01-09T01:35:22.854Z,98.61
2023-01-09T01:36:22.817Z,98.71
2023-01-09T01:37:22.858Z,98.61
2023-01-09T01:38:22.808Z,98.61
2023-01-09T01:39:22.782Z,98.71
2023-01-09T01:40:22.789Z,98.71
2023-01-09T01:41:22.768Z,98.82
2023-01-09T01:42:22.747Z,98.71
2023-01-09T01:43:22.728Z,98.61
2023-01-09T01:44:22.707Z,98.61
2023-01-09T01:45:22.773Z,98.50
2023-01-09T01:46:22.686Z,98.61
2023-01-09T01:47:22.674Z,98.61
2023-01-09T01:48:22.665Z,98.71
2023-01-09T01:49:22.655Z,98.92
2023-01-09T01:50:22.665Z,99.13
2023-01-09T01:51:22.631Z,99.33
2023-01-09T01:52:22.611Z,99.33
2023-01-09T01:53:22.596Z,99.54
2023-01-09T01:54:22.587Z,99.85
2023-01-09T01:55:22.592Z,99.90
2023-01-09T01:56:22.546Z,99.80
2023-01-09T01:57:22.550Z,99.99
2023-01-09T01:58:22.537Z,99.99
2023-01-09T01:59:22.525Z,99.99
2023-01-09T02:00:22.521Z,99.99
2023-01-09T02:01:22.646Z,99.99
2023-01-09T02:02:22.693Z,99.99
2023-01-09T02:03:22.492Z,99.99
2023-01-09T02:04:22.456Z,99.99
2023-01-09T02:05:22.459Z,99.99
2023-01-09T02:06:22.426Z,99.99
2023-01-09T02:07:22.427Z,99.99
2023-01-09T02:08:22.406Z,99.99
2023-01-09T02:09:22.385Z,99.99
2023-01-09T02:10:22.386Z,99.99
2023-01-09T02:11:22.365Z,99.99
2023-01-09T02:12:22.343Z,99.99
2023-01-09T02:13:22.334Z,99.99
2023-01-09T02:14:22.327Z,99.99
2023-01-09T02:15:22.335Z,99.99
2023-01-09T02:16:22.326Z,99.99
2023-01-09T02:17:22.281Z,99.99
2023-01-09T02:18:22.264Z,99.99
2023-01-09T02:19:22.274Z,99.99
2023-01-09T02:20:22.248Z,99.99
2023-01-09T02:21:22.239Z,99.99
2023-01-09T02:22:22.211Z,99.99
2023-01-09T02:23:22.202Z,99.99
2023-01-09T02:24:22.192Z,99.99
2023-01-09T02:25:22.191Z,99.99
2023-01-09T02:26:22.166Z,99.99
2023-01-09T02:27:22.150Z,99.99
2023-01-09T02:28:22.142Z,99.99
2023-01-09T02:29:22.147Z,99.99
2023-01-09T02:30:22.122Z,99.99
2023-01-09T02:31:22.153Z,99.99
2023-01-09T02:32:22.084Z,99.99
2023-01-09T02:33:22.080Z,99.99
2023-01-09T02:34:22.061Z,99.99
2023-01-09T02:35:22.061Z,99.99
2023-01-09T02:36:22.033Z,99.99
2023-01-09T02:37:22.017Z,99.99
2023-01-09T02:38:22.010Z,99.99
2023-01-09T02:39:22.010Z,99.99
2023-01-09T02:40:21.990Z,99.99
2023-01-09T02:41:21.984Z,99.99
2023-01-09T02:42:21.974Z,99.99
2023-01-09T02:43:21.954Z,99.99
2023-01-09T02:44:21.928Z,99.99
2023-01-09T02:45:21.942Z,99.99
2023-01-09T02:46:21.903Z,99.99
2023-01-09T02:47:21.900Z,99.99
2023-01-09T02:48:21.881Z,99.99
2023-01-09T02:49:21.879Z,99.99
2023-01-09T02:50:21.866Z,99.99
2023-01-09T02:51:21.849Z,99.99
2023-01-09T02:52:21.849Z,99.99
2023-01-09T02:53:21.810Z,99.99
2023-01-09T02:54:21.809Z,99.99
2023-01-09T02:55:21.858Z,99.99
2023-01-09T02:56:21.779Z,99.99
2023-01-09T02:57:21.767Z,99.99
2023-01-09T02:58:21.801Z,99.99
2023-01-09T02:59:21.746Z,99.99
2023-01-09T03:00:21.736Z,99.99
2023-01-09T03:01:21.827Z,99.99
2023-01-09T03:02:21.707Z,99.99
2023-01-09T03:03:21.725Z,99.99
2023-01-09T03:04:21.676Z,99.99
2023-01-09T03:05:21.684Z,99.99
2023-01-09T03:06:21.647Z,99.99
2023-01-09T03:07:21.634Z,99.99
2023-01-09T03:08:21.627Z,99.99
2023-01-09T03:09:21.606Z,99.99
2023-01-09T03:10:21.624Z,99.99
2023-01-09T03:11:21.585Z,99.99
2023-01-09T03:12:21.597Z,99.99
2023-01-09T03:13:21.605Z,99.99
2023-01-09T03:14:21.553Z,99.99
2023-01-09T03:15:21.560Z,99.99
2023-01-09T03:16:21.594Z,99.99
2023-01-09T03:17:21.512Z,99.99
2023-01-09T03:18:21.493Z,99.99
2023-01-09T03:19:21.479Z,99.99
2023-01-09T03:20:21.494Z,99.99
2023-01-09T03:21:21.451Z,99.99
2023-01-09T03:22:21.478Z,99.99
2023-01-09T03:23:21.427Z,99.99
2023-01-09T03:24:21.422Z,99.99
2023-01-09T03:25:21.424Z,99.99
2023-01-09T03:26:21.437Z,99.99
2023-01-09T03:27:21.392Z,99.99
2023-01-09T03:28:21.410Z,99.99
2023-01-09T03:29:21.354Z,99.99
2023-01-09T03:30:21.363Z,99.99
2023-01-09T03:31:21.356Z,99.99
2023-01-09T03:32:21.337Z,99.99
2023-01-09T03:33:21.307Z,99.99
2023-01-09T03:34:22.068Z,99.99
2023-01-09T03:35:21.271Z,99.99
2023-01-09T03:36:21.305Z,99.99
2023-01-09T03:37:21.262Z,99.99
2023-01-09T03:38:21.242Z,99.99
2023-01-09T03:39:21.268Z,99.99
2023-01-09T03:40:21.219Z,99.99
2023-01-09T03:41:21.215Z,99.99
2023-01-09T03:42:21.192Z,99.99
2023-01-09T03:43:21.172Z,99.99
2023-01-09T03:44:21.168Z,99.99
2023-01-09T03:45:21.150Z,99.99
2023-01-09T03:46:21.148Z,99.99
2023-01-09T03:47:21.169Z,99.99
2023-01-09T03:48:21.110Z,99.99
2023-01-09T03:49:21.102Z,99.99
2023-01-09T03:50:21.091Z,99.99
2023-01-09T03:51:21.093Z,99.99
2023-01-09T03:52:21.059Z,99.99
2023-01-09T03:53:21.038Z,99.99
2023-01-09T03:54:21.039Z,99.99
2023-01-09T03:55:21.020Z,99.99
2023-01-09T03:56:21.018Z,99.99
2023-01-09T03:57:20.998Z,99.99
2023-01-09T03:58:20.977Z,99.99
2023-01-09T03:59:20.982Z,99.99
2023-01-09T04:00:20.969Z,99.99
2023-01-09T04:01:21.080Z,99.99
2023-01-09T04:02:20.948Z,99.99
2023-01-09T04:03:20.945Z,99.99
2023-01-09T04:04:20.899Z,99.99
2023-01-09T04:05:20.879Z,99.99
2023-01-09T04:06:20.887Z,99.99
2023-01-09T04:07:20.881Z,99.99
2023-01-09T04:08:20.878Z,99.99
2023-01-09T04:09:20.831Z,99.99
2023-01-09T04:10:20.841Z,99.99
2023-01-09T04:11:20.870Z,99.99
2023-01-09T04:12:20.811Z,99.99
2023-01-09T04:13:20.774Z,99.99
2023-01-09T04:14:20.779Z,99.99
2023-01-09T04:15:20.778Z,99.99
2023-01-09T04:16:20.816Z,99.99
2023-01-09T04:17:20.732Z,99.99
2023-01-09T04:18:20.714Z,99.99
2023-01-09T04:19:20.709Z,99.99
2023-01-09T04:20:20.732Z,99.99
2023-01-09T04:21:20.685Z,99.99
2023-01-09T04:22:20.665Z,99.99
2023-01-09T04:23:20.667Z,99.99
2023-01-09T04:24:20.636Z,99.99
2023-01-09T04:25:20.637Z,99.99
2023-01-09T04:26:20.662Z,99.99
2023-01-09T04:27:20.623Z,99.99
2023-01-09T04:28:20.583Z,99.99
2023-01-09T04:29:20.596Z,99.99
2023-01-09T04:30:20.589Z,99.99
2023-01-09T04:31:20.575Z,99.99
2023-01-09T04:32:20.542Z,99.99
2023-01-09T04:33:20.559Z,99.99
2023-01-09T04:34:20.503Z,99.99
2023-01-09T04:35:20.492Z,99.99
2023-01-09T04:36:20.500Z,99.99
2023-01-09T04:37:20.463Z,99.99
2023-01-09T04:38:20.461Z,99.99
2023-01-09T04:39:20.454Z,99.99
2023-01-09T04:40:20.435Z,99.99
2023-01-09T04:41:20.442Z,99.99
2023-01-09T04:42:20.409Z,99.99
2023-01-09T04:43:20.388Z,99.99
2023-01-09T04:44:20.401Z,99.99
2023-01-09T04:45:20.373Z,99.99
2023-01-09T04:46:20.384Z,99.99
2023-01-09T04:47:20.346Z,99.99
2023-01-09T04:48:20.345Z,99.99
2023-01-09T04:49:20.328Z,99.99
2023-01-09T04:50:20.312Z,99.99
2023-01-09T04:51:20.312Z,99.99
2023-01-09T04:52:20.304Z,99.99
2023-01-09T04:53:20.287Z,99.99
2023-01-09T04:54:20.249Z,99.99
2023-01-09T04:55:20.248Z,99.99
2023-01-09T04:56:20.242Z,99.99
2023-01-09T04:57:20.211Z,99.99
2023-01-09T04:58:20.219Z,99.99
2023-01-09T04:59:20.188Z,99.99
2023-01-09T05:00:20.192Z,99.99
2023-01-09T05:01:20.253Z,99.99
2023-01-09T05:02:20.167Z,99.99
2023-01-09T05:03:20.136Z,99.99
2023-01-09T05:04:20.129Z,99.99
2023-01-09T05:05:20.119Z,99.99
2023-01-09T05:06:20.097Z,99.99
2023-01-09T05:07:20.080Z,99.99
2023-01-09T05:08:20.093Z,99.99
2023-01-09T05:09:20.057Z,99.99
2023-01-09T05:10:20.049Z,99.99
2023-01-09T05:11:20.035Z,99.99
2023-01-09T05:12:20.034Z,99.99
2023-01-09T05:13:20.046Z,99.99
2023-01-09T05:14:19.990Z,99.99
2023-01-09T05:15:19.976Z,99.99
2023-01-09T05:16:20.025Z,99.99
2023-01-09T05:17:19.953Z,99.99
2023-01-09T05:18:19.951Z,99.99
2023-01-09T05:19:19.924Z,99.99
2023-01-09T05:20:19.912Z,99.99
2023-01-09T05:21:19.917Z,99.99
2023-01-09T05:22:19.887Z,99.99
2023-01-09T05:23:19.877Z,99.99
2023-01-09T05:24:19.866Z,99.99
2023-01-09T05:25:19.855Z,99.99
2023-01-09T05:26:19.854Z,99.99
2023-01-09T05:27:19.814Z,99.99
2023-01-09T05:28:19.813Z,99.99
2023-01-09T05:29:19.794Z,99.99
2023-01-09T05:30:19.825Z,99.99
2023-01-09T05:31:19.830Z,99.99
2023-01-09T05:32:19.772Z,99.99
2023-01-09T05:33:19.757Z,99.99
2023-01-09T05:34:19.743Z,99.99
2023-01-09T05:35:19.718Z,99.99
2023-01-09T05:36:19.712Z,99.99
2023-01-09T05:37:19.696Z,99.99
2023-01-09T05:38:19.701Z,99.99
2023-01-09T05:39:19.674Z,99.99
2023-01-09T05:40:19.810Z,99.99
2023-01-09T05:41:19.646Z,99.99
2023-01-09T05:42:19.670Z,99.99
2023-01-09T05:43:19.621Z,99.99
2023-01-09T05:44:19.635Z,99.99
2023-01-09T05:45:19.581Z,99.99
2023-01-09T05:46:19.603Z,99.99
2023-01-09T05:47:19.558Z,99.99
2023-01-09T05:48:19.560Z,99.99
2023-01-09T05:49:19.536Z,99.99
2023-01-09T05:50:19.530Z,99.99
2023-01-09T05:51:19.549Z,99.99
2023-01-09T05:52:19.504Z,99.99
2023-01-09T05:53:19.483Z,99.99
2023-01-09T05:54:19.487Z,99.99
2023-01-09T05:55:19.463Z,99.99
2023-01-09T05:56:19.465Z,99.99
2023-01-09T05:57:19.441Z,99.99
2023-01-09T05:58:19.430Z,99.99
2023-01-09T05:59:19.408Z,99.99
2023-01-09T06:00:19.418Z,99.99
2023-01-09T06:01:19.497Z,99.99
2023-01-09T06:02:19.512Z,99.99
2023-01-09T06:03:19.358Z,99.99
2023-01-09T06:04:19.368Z,99.99
2023-01-09T06:05:19.375Z,99.99
2023-01-09T06:06:19.344Z,99.99
2023-01-09T06:07:22.112Z,99.99
2023-01-09T06:08:19.320Z,99.99
2023-01-09T06:09:19.296Z,99.99
2023-01-09T06:10:19.278Z,99.99
2023-01-09T06:11:19.260Z,99.99
2023-01-09T06:12:19.299Z,99.99
2023-01-09T06:13:19.252Z,99.99
2023-01-09T06:14:19.226Z,99.99
2023-01-09T06:15:19.196Z,99.99
2023-01-09T06:16:19.261Z,99.99
2023-01-09T06:17:19.187Z,99.99
2023-01-09T06:18:19.163Z,99.99
2023-01-09T06:19:19.169Z,99.99
2023-01-09T06:20:19.148Z,99.99
2023-01-09T06:21:19.165Z,99.99
2023-01-09T06:22:19.156Z,99.99
2023-01-09T06:23:19.133Z,99.99
2023-01-09T06:24:19.112Z,99.99
2023-01-09T06:25:19.076Z,99.99
2023-01-09T06:26:19.110Z,99.99
2023-01-09T06:27:19.047Z,99.99
2023-01-09T06:28:19.067Z,99.99
2023-01-09T06:29:19.095Z,99.99
2023-01-09T06:30:19.104Z,99.99
2023-01-09T06:31:19.158Z,99.99
2023-01-09T06:32:18.975Z,99.99
2023-01-09T06:33:18.973Z,99.99
2023-01-09T06:34:18.944Z,99.99
2023-01-09T06:35:18.935Z,99.99
2023-01-09T06:36:19.999Z,99.99
2023-01-09T06:37:18.954Z,99.99
2023-01-09T06:38:19.022Z,99.99
2023-01-09T06:39:18.881Z,99.99
2023-01-09T06:40:18.874Z,99.99
2023-01-09T06:41:18.923Z,99.99
2023-01-09T06:42:18.872Z,99.99
2023-01-09T06:43:18.961Z,99.99
2023-01-09T06:44:18.911Z,99.99
2023-01-09T06:45:18.847Z,99.99
2023-01-09T06:46:18.854Z,99.99
2023-01-09T06:47:18.784Z,99.99
2023-01-09T06:48:18.824Z,99.99
2023-01-09T06:49:18.755Z,99.99
2023-01-09T06:50:18.754Z,99.99
2023-01-09T06:51:18.763Z,99.99
2023-01-09T06:52:18.839Z,99.99
2023-01-09T06:53:18.719Z,99.99
2023-01-09T06:54:18.774Z,99.99
2023-01-09T06:55:18.689Z,99.99
2023-01-09T06:56:18.683Z,99.99
2023-01-09T06:57:18.672Z,99.99
2023-01-09T06:58:18.642Z,99.99
2023-01-09T06:59:18.623Z,99.99
2023-01-09T07:00:18.720Z,99.99
2023-01-09T07:01:18.765Z,99.99
2023-01-09T07:02:18.685Z,99.99
2023-01-09T07:03:18.609Z,99.99
2023-01-09T07:04:18.687Z,99.99
2023-01-09T07:05:18.578Z,99.99
2023-01-09T07:06:18.563Z,99.99
2023-01-09T07:07:18.749Z,99.99
2023-01-09T07:08:18.521Z,99.99
2023-01-09T07:09:18.590Z,99.99
2023-01-09T07:10:18.592Z,99.99
2023-01-09T07:11:18.581Z,99.99
2023-01-09T07:12:18.477Z,99.99
2023-01-09T07:13:18.495Z,99.99
2023-01-09T07:14:18.436Z,99.99
2023-01-09T07:15:18.575Z,99.99
2023-01-09T07:16:18.463Z,99.99
2023-01-09T07:17:18.411Z,99.99
2023-01-09T07:18:18.488Z,99.99
2023-01-09T07:19:18.442Z,99.99
2023-01-09T07:20:18.500Z,99.99
2023-01-09T07:21:18.338Z,99.99
2023-01-09T07:22:18.387Z,99.99
2023-01-09T07:23:18.439Z,99.99
2023-01-09T07:24:18.318Z,99.99
2023-01-09T07:25:18.315Z,99.99
2023-01-09T07:26:18.353Z,99.99
2023-01-09T07:27:18.297Z,99.99
2023-01-09T07:28:18.282Z,99.99
2023-01-09T07:29:18.256Z,99.99
2023-01-09T07:30:18.305Z,99.99
2023-01-09T07:31:18.254Z,99.99
2023-01-09T07:32:18.279Z,99.99
2023-01-09T07:33:18.206Z,99.99
2023-01-09T07:34:18.241Z,99.99
2023-01-09T07:35:18.193Z,99.99
2023-01-09T07:36:18.145Z,99.99
2023-01-09T07:37:18.195Z,99.99
2023-01-09T07:38:18.145Z,99.99
2023-01-09T07:39:18.133Z,99.99
2023-01-09T07:40:18.143Z,99.99
2023-01-09T07:41:18.112Z,99.99
2023-01-09T07:42:18.121Z,99.99
2023-01-09T07:43:18.108Z,99.99
2023-01-09T07:44:18.067Z,99.99
2023-01-09T07:45:18.103Z,99.99
2023-01-09T07:46:18.159Z,99.99
2023-01-09T07:47:18.054Z,99.99
2023-01-09T07:48:18.047Z,99.99
2023-01-09T07:49:26.965Z,99.99
2023-01-09T07:50:25.623Z,99.99
2023-01-09T07:51:26.752Z,99.99
2023-01-09T07:52:17.957Z,99.99
2023-01-09T07:53:17.958Z,99.99
2023-01-09T07:54:17.972Z,99.99
2023-01-09T07:55:17.918Z,99.99
2023-01-09T07:56:17.929Z,99.99
2023-01-09T07:57:17.969Z,99.99
2023-01-09T07:58:17.896Z,99.99
2023-01-09T07:59:17.867Z,99.99
2023-01-09T08:00:17.847Z,99.99
2023-01-09T08:01:17.891Z,99.99
2023-01-09T08:02:18.004Z,99.99
2023-01-09T08:03:17.884Z,99.99
2023-01-09T08:04:17.799Z,99.99
2023-01-09T08:05:17.896Z,99.99
2023-01-09T08:06:17.789Z,99.99
2023-01-09T08:07:17.777Z,99.99
2023-01-09T08:08:17.784Z,99.99
2023-01-09T08:09:17.766Z,99.99
2023-01-09T08:10:17.785Z,99.99
2023-01-09T08:11:17.736Z,99.99
2023-01-09T08:12:17.724Z,99.99
2023-01-09T08:13:17.673Z,99.99
2023-01-09T08:14:17.655Z,99.99
2023-01-09T08:15:17.656Z,99.99
2023-01-09T08:16:17.711Z,99.99
2023-01-09T08:17:17.665Z,99.99
2023-01-09T08:18:17.609Z,99.99
2023-01-09T08:19:17.616Z,99.99
2023-01-09T08:20:17.591Z,99.99
2023-01-09T08:21:17.580Z,99.99
2023-01-09T08:22:17.572Z,99.99
2023-01-09T08:23:17.552Z,99.99
2023-01-09T08:24:17.526Z,99.99
2023-01-09T08:25:17.520Z,99.99
2023-01-09T08:26:17.505Z,99.99
2023-01-09T08:27:17.506Z,99.99
2023-01-09T08:28:17.483Z,99.99
2023-01-09T08:29:17.484Z,99.99
2023-01-09T08:30:17.474Z,99.99
2023-01-09T08:31:17.520Z,99.99
2023-01-09T08:32:17.441Z,99.99
2023-01-09T08:33:17.475Z,99.99
2023-01-09T08:34:17.385Z,99.99
2023-01-09T08:35:17.392Z,99.99
2023-01-09T08:36:17.403Z,99.99
2023-01-09T08:37:17.382Z,99.99
2023-01-09T08:38:17.371Z,99.99
2023-01-09T08:39:17.355Z,99.99
2023-01-09T08:40:17.322Z,99.99
2023-01-09T08:41:17.329Z,99.72
2023-01-09T08:42:17.302Z,99.47
2023-01-09T08:43:17.283Z,99.88
2023-01-09T08:44:17.266Z,99.47
2023-01-09T08:45:17.265Z,99.57
2023-01-09T08:46:17.266Z,99.06
2023-01-09T08:47:17.292Z,98.54
2023-01-09T08:48:17.230Z,99.26
2023-01-09T08:49:17.206Z,98.96
2023-01-09T08:50:17.182Z,99.16
2023-01-09T08:51:17.184Z,99.06
2023-01-09T08:52:17.166Z,99.47
2023-01-09T08:53:17.160Z,99.99
2023-01-09T08:54:17.152Z,99.47
2023-01-09T08:55:17.126Z,99.06
2023-01-09T08:56:17.108Z,99.26
2023-01-09T08:57:17.118Z,99.99
2023-01-09T08:58:17.086Z,99.99
2023-01-09T08:59:17.075Z,99.99
2023-01-09T09:00:17.067Z,99.99
2023-01-09T09:01:17.064Z,99.99
2023-01-09T09:02:17.053Z,99.99
2023-01-09T09:03:17.027Z,99.88
2023-01-09T09:04:17.011Z,99.16
2023-01-09T09:05:16.998Z,98.60
2023-01-09T09:06:17.067Z,99.01
2023-01-09T09:07:17.008Z,99.11
2023-01-09T09:08:16.955Z,98.70
2023-01-09T09:09:16.945Z,98.91
2023-01-09T09:10:16.939Z,99.43
2023-01-09T09:11:16.915Z,99.43
2023-01-09T09:12:16.936Z,98.80
2023-01-09T09:13:16.916Z,99.01
2023-01-09T09:14:16.865Z,99.11
2023-01-09T09:15:16.897Z,99.32
2023-01-09T09:16:16.868Z,99.43
2023-01-09T09:17:16.844Z,99.43
2023-01-09T09:18:16.954Z,99.32
2023-01-09T09:19:16.820Z,99.11
2023-01-09T09:20:16.815Z,98.91
2023-01-09T09:21:16.809Z,98.91
2023-01-09T09:22:16.793Z,98.80
2023-01-09T09:23:16.773Z,98.80
2023-01-09T09:24:16.751Z,98.80
2023-01-09T09:25:16.735Z,98.60
2023-01-09T09:26:16.728Z,98.76
2023-01-09T09:27:16.724Z,98.97
2023-01-09T09:28:16.693Z,98.24
2023-01-09T09:29:16.696Z,98.45
2023-01-09T09:30:16.684Z,98.76
2023-01-09T09:31:16.680Z,98.55
2023-01-09T09:32:16.652Z,98.71
2023-01-09T09:33:16.642Z,98.41
2023-01-09T09:34:16.629Z,98.41
2023-01-09T09:35:16.609Z,98.50
2023-01-09T09:36:16.603Z,98.61
2023-01-09T09:37:16.611Z,98.41
2023-01-09T09:38:16.580Z,98.41
2023-01-09T09:39:16.562Z,97.17
2023-01-09T09:40:18.643Z,97.53
2023-01-09T09:41:16.524Z,97.74
2023-01-09T09:42:16.510Z,97.95
2023-01-09T09:43:16.491Z,96.81
2023-01-09T09:44:16.479Z,97.23
2023-01-09T09:45:16.473Z,97.43
2023-01-09T09:46:16.472Z,97.43
2023-01-09T09:47:16.451Z,97.28
2023-01-09T09:48:16.428Z,97.80
2023-01-09T09:49:16.418Z,96.97
2023-01-09T09:50:16.398Z,96.67
2023-01-09T09:51:16.399Z,95.74
2023-01-09T09:52:16.380Z,96.05
2023-01-09T09:53:16.359Z,96.67
2023-01-09T09:54:16.351Z,96.62
2023-01-09T09:55:16.393Z,95.23
2023-01-09T09:56:16.320Z,95.53
2023-01-09T09:57:16.319Z,95.74
2023-01-09T09:58:16.308Z,95.02
2023-01-09T09:59:16.299Z,95.68
2023-01-09T10:00:16.271Z,95.78
2023-01-09T10:01:16.287Z,95.53
2023-01-09T10:02:16.249Z,95.33
2023-01-09T10:03:20.439Z,95.64
2023-01-09T10:04:17.217Z,94.92
2023-01-09T10:05:16.213Z,94.51
2023-01-09T10:06:16.198Z,95.02
2023-01-09T10:07:16.305Z,94.77
2023-01-09T10:08:16.325Z,93.33
2023-01-09T10:09:16.156Z,93.95
2023-01-09T10:10:16.135Z,94.30
2023-01-09T10:11:16.177Z,93.58
2023-01-09T10:12:16.118Z,93.64
2023-01-09T10:13:16.116Z,92.82
2023-01-09T10:14:23.679Z,93.54
2023-01-09T10:15:17.086Z,93.18
2023-01-09T10:16:16.143Z,92.57
2023-01-09T10:17:16.058Z,91.95
2023-01-09T10:18:16.048Z,91.74
2023-01-09T10:19:16.025Z,92.25
2023-01-09T10:20:16.006Z,92.67
2023-01-09T10:21:16.014Z,92.82
2023-01-09T10:22:15.992Z,93.02
2023-01-09T10:23:15.975Z,92.50
2023-01-09T10:24:15.955Z,92.50
2023-01-09T10:25:15.951Z,93.43
2023-01-09T10:26:15.975Z,94.05
2023-01-09T10:27:15.926Z,93.33
2023-01-09T10:28:15.914Z,93.84
2023-01-09T10:29:15.899Z,94.26
2023-01-09T10:30:15.879Z,93.18
2023-01-09T10:31:15.915Z,91.33
2023-01-09T10:32:15.853Z,92.32
2023-01-09T10:33:15.862Z,92.52
2023-01-09T10:34:15.824Z,91.19
2023-01-09T10:35:15.824Z,92.01
2023-01-09T10:36:15.819Z,91.80
2023-01-09T10:37:15.818Z,90.67
2023-01-09T10:38:15.826Z,91.80
2023-01-09T10:39:15.798Z,92.63
2023-01-09T10:40:15.802Z,93.44
2023-01-09T10:41:15.769Z,93.44
2023-01-09T10:42:15.739Z,91.85
2023-01-09T10:43:15.743Z,92.16
2023-01-09T10:44:15.713Z,91.33
2023-01-09T10:45:15.720Z,91.70
2023-01-09T10:46:15.721Z,91.49
2023-01-09T10:47:15.663Z,92.21
2023-01-09T10:48:15.665Z,91.91
2023-01-09T10:49:15.641Z,92.21
2023-01-09T10:50:15.633Z,91.70
2023-01-09T10:51:15.629Z,90.88
2023-01-09T10:52:15.949Z,91.80
2023-01-09T10:53:15.603Z,91.60
2023-01-09T10:54:15.569Z,91.60
2023-01-09T10:55:15.572Z,91.80
2023-01-09T10:56:15.541Z,91.39
2023-01-09T10:57:15.541Z,91.91
2023-01-09T10:58:15.530Z,92.01
2023-01-09T10:59:15.514Z,92.32
2023-01-09T11:00:15.500Z,92.21
2023-01-09T11:01:15.489Z,92.42
2023-01-09T11:02:15.529Z,91.29
2023-01-09T11:03:15.558Z,91.49
2023-01-09T11:04:15.450Z,91.04
2023-01-09T11:05:15.430Z,91.86
2023-01-09T11:06:15.438Z,91.20
2023-01-09T11:07:15.414Z,88.29
2023-01-09T11:08:15.405Z,89.37
2023-01-09T11:09:15.386Z,87.77
2023-01-09T11:10:15.365Z,87.30
2023-01-09T11:11:15.357Z,88.64
2023-01-09T11:12:15.341Z,89.70
2023-01-09T11:13:15.361Z,88.89
2023-01-09T11:14:15.315Z,89.19
2023-01-09T11:15:15.326Z,89.40
2023-01-09T11:16:15.396Z,89.91
2023-01-09T11:17:15.287Z,90.08
2023-01-09T11:18:15.268Z,90.08
2023-01-09T11:19:15.248Z,89.31
2023-01-09T11:20:15.244Z,89.17
2023-01-09T11:21:15.217Z,88.86
2023-01-09T11:22:15.208Z,88.00
2023-01-09T11:23:15.212Z,86.98
2023-01-09T11:24:15.177Z,86.57
2023-01-09T11:25:15.175Z,85.64
2023-01-09T11:26:15.163Z,85.95
2023-01-09T11:27:15.147Z,85.74
2023-01-09T11:28:15.135Z,86.05
2023-01-09T11:29:15.140Z,85.80
2023-01-09T11:30:15.112Z,85.39
2023-01-09T11:31:15.104Z,85.39
2023-01-09T11:32:15.080Z,83.69
2023-01-09T11:33:15.080Z,84.20
2023-01-09T11:34:15.046Z,84.00
2023-01-09T11:35:15.043Z,85.27
2023-01-09T11:36:15.043Z,85.82
2023-01-09T11:37:15.005Z,86.33
2023-01-09T11:38:15.009Z,87.20
2023-01-09T11:39:14.975Z,87.30
2023-01-09T11:40:14.974Z,87.96
2023-01-09T11:41:14.954Z,87.65
2023-01-09T11:42:14.954Z,87.55
2023-01-09T11:43:14.939Z,88.20
2023-01-09T11:44:14.943Z,88.51
2023-01-09T11:45:14.916Z,88.31
2023-01-09T11:46:14.968Z,89.13
2023-01-09T11:47:14.883Z,88.82
2023-01-09T11:48:14.882Z,89.13
2023-01-09T11:49:14.858Z,88.98
2023-01-09T11:50:14.848Z,90.22
2023-01-09T11:51:14.823Z,90.01
2023-01-09T11:52:14.824Z,89.40
2023-01-09T11:53:14.816Z,89.29
2023-01-09T11:54:14.783Z,89.29
2023-01-09T11:55:14.773Z,88.02
2023-01-09T11:56:14.785Z,88.23
2023-01-09T11:57:14.752Z,88.84
2023-01-09T11:58:14.754Z,89.87
2023-01-09T11:59:14.734Z,88.95
2023-01-09T12:00:14.731Z,89.56
2023-01-09T12:01:14.713Z,88.74
2023-01-09T12:02:14.725Z,88.53
2023-01-09T12:03:14.745Z,87.92
2023-01-09T12:04:14.680Z,87.92
2023-01-09T12:05:14.665Z,88.33
2023-01-09T12:06:14.651Z,88.12
2023-01-09T12:07:14.621Z,88.33
2023-01-09T12:08:14.629Z,88.33
2023-01-09T12:09:14.594Z,88.53
2023-01-09T12:10:14.585Z,88.43
2023-01-09T12:11:14.570Z,88.02
2023-01-09T12:12:15.623Z,89.04
2023-01-09T12:13:14.560Z,88.95
2023-01-09T12:14:14.539Z,89.25
2023-01-09T12:15:14.520Z,88.95
2023-01-09T12:16:14.524Z,88.33
2023-01-09T12:17:14.491Z,88.89
2023-01-09T12:18:14.498Z,89.56
2023-01-09T12:19:14.479Z,88.53
2023-01-09T12:20:14.454Z,88.12
2023-01-09T12:21:15.321Z,88.57
2023-01-09T12:22:14.429Z,88.37
2023-01-09T12:23:14.431Z,87.92
2023-01-09T12:24:14.401Z,88.43
2023-01-09T12:25:14.389Z,88.53
2023-01-09T12:26:14.390Z,87.40
2023-01-09T12:27:17.120Z,87.71
2023-01-09T12:28:14.359Z,87.51
2023-01-09T12:29:14.409Z,87.61
2023-01-09T12:30:14.327Z,87.40
2023-01-09T12:31:14.333Z,88.64
2023-01-09T12:32:14.299Z,87.40
2023-01-09T12:33:14.303Z,87.51
2023-01-09T12:34:14.295Z,87.61
2023-01-09T12:35:14.260Z,87.40
2023-01-09T12:36:14.249Z,87.40
2023-01-09T12:37:14.262Z,87.10
2023-01-09T12:38:14.236Z,87.10
2023-01-09T12:39:14.211Z,86.17
2023-01-09T12:40:14.237Z,85.86
2023-01-09T12:41:14.196Z,87.40
2023-01-09T12:42:14.187Z,87.71
2023-01-09T12:43:14.164Z,86.58
2023-01-09T12:44:14.153Z,87.20
2023-01-09T12:45:14.126Z,87.20
2023-01-09T12:46:14.125Z,86.99
2023-01-09T12:47:14.111Z,87.30
2023-01-09T12:48:14.096Z,87.57
2023-01-09T12:49:14.090Z,85.31
2023-01-09T12:50:14.158Z,85.72
2023-01-09T12:51:14.055Z,85.41
2023-01-09T12:52:14.070Z,85.21